• Join FlightAware (Why Join?)
  • Login
  • US Flag 
07:34AM EDT


 

Airport Tracker/Info


-or-


 

Live Flight TrackerFlight Track Log ✈ SWA1035 ✈ 26-Apr-2013 ✈ KMCI - KABQ

Flight Track Log - Related Links

Times and Time Zones

All times are in EDT time to prevent confusion due to time zone crossing. See the SWA1035 flight status page for this flight to view local times or setup timezone preferences in your user account.

Time Position Orientation Groundspeed Altitude Reporting Facility
EDT Latitude Longitude Course Direction KTS MPH feet Rate Location/Type
02:42PM 39.2650 -94.7617 212° Southwest 170 196 3,300  Level Kansas City Center
02:43PM 39.2478 -94.8467 255° West 227 261 6,200 3,120 Climbing Kansas City Center
02:44PM 39.2397 -94.9433 264° West 282 325 9,900 3,000 Climbing Kansas City Center
02:45PM 39.2283 -95.0686 263° West 324 373 12,500 3,240 Climbing Kansas City Center
02:47PM 39.2169 -95.1919 263° West 329 379 16,700 3,120 Climbing Kansas City Center
02:48PM 39.2061 -95.3111 263° West 334 384 19,100 2,460 Climbing Kansas City Center
02:49PM 39.1936 -95.4467 263° West 354 407 21,800 2,160 Climbing Kansas City Center
02:50PM 39.1828 -95.5686 263° West 364 419 23,700 1,740 Climbing Kansas City Center
02:51PM 39.1703 -95.6986 263° West 379 436 25,500 1,800 Climbing Kansas City Center
02:52PM 39.1556 -95.8553 263° West 395 455 27,500 1,560 Climbing Kansas City Center
02:53PM 39.1406 -95.9922 262° West 405 466 28,800 1,680 Climbing Kansas City Center
02:54PM 39.1203 -96.1561 261° West 414 476 31,000 2,040 Climbing Kansas City Center
02:55PM 39.1022 -96.2906 260° West 400 460 33,100 2,040 Climbing Kansas City Center
02:56PM 39.0833 -96.4425 261° West 388 447 35,300 1,380 Climbing Kansas City Center
02:57PM 39.0653 -96.5708 260° West 383 441 36,000 300 Climbing Kansas City Center
02:58PM 39.0436 -96.7233 260° West 386 444 36,000  Level Kansas City Center
02:59PM 39.0281 -96.8556 261° West 389 448 36,000  Level Kansas City Center
03:00PM 39.0078 -97.0089 260° West 389 448 36,000  Level Kansas City Center
03:01PM 38.9906 -97.1408 261° West 391 450 36,000  Level Kansas City Center
03:02PM 38.9739 -97.2742 261° West 394 453 36,000 120 Level Kansas City Center
03:03PM 38.9553 -97.4078 260° West 384 442 36,300 660 Climbing Kansas City Center
03:04PM 38.9356 -97.5522 260° West 383 441 37,400 780 Climbing Kansas City Center
03:05PM 38.9019 -97.7036 254° West 394 453 38,000 240 Climbing Kansas City Center
03:06PM 38.8614 -97.8297 248° West 395 455 38,000  Level Kansas City Center
03:07PM 38.8156 -97.9600 246° West 392 451 38,000  Level Kansas City Center
03:08PM 38.7697 -98.0836 245° Southwest 388 447 38,000  Level Kansas City Center
03:09PM 38.7256 -98.2075 245° Southwest 384 442 38,000  Level Kansas City Center
03:10PM 38.6706 -98.3539 244° Southwest 382 440 38,000  Level Kansas City Center
03:11PM 38.6250 -98.4767 245° Southwest 382 440 38,000  Level Kansas City Center
03:12PM 38.5800 -98.5994 245° Southwest 382 440 38,000  Level Kansas City Center
03:13PM 38.5347 -98.7208 245° Southwest 382 440 38,000  Level Kansas City Center
03:14PM 38.4897 -98.8406 244° Southwest 377 434 38,000  Level Kansas City Center
03:15PM 38.4344 -98.9892 245° Southwest 384 442 38,000  Level Kansas City Center
03:17PM 38.3875 -99.1111 244° Southwest 385 443 38,000  Level Kansas City Center
03:18PM 38.3414 -99.2342 244° Southwest 386 444 38,000  Level Kansas City Center
03:19PM 38.2936 -99.3567 244° Southwest 387 445 38,000  Level Kansas City Center
03:20PM 38.2464 -99.4786 244° Southwest 386 444 38,000  Level Kansas City Center
03:21PM 38.1961 -99.6147 245° Southwest 384 442 38,000  Level Kansas City Center
03:22PM 38.1428 -99.7497 243° Southwest 383 441 38,000  Level Kansas City Center
03:23PM 38.0978 -99.8667 244° Southwest 384 442 38,000  Level Kansas City Center
03:24PM 38.0447 -100.0014 243° Southwest 383 441 38,000  Level Kansas City Center
03:25PM 38.0003 -100.1178 244° Southwest 383 441 38,000  Level Kansas City Center
03:26PM 37.9542 -100.2333 243° Southwest 384 442 38,000  Level Kansas City Center
03:27PM 37.9011 -100.3672 243° Southwest 382 440 38,000  Level Kansas City Center
03:28PM 37.8561 -100.4811 243° Southwest 379 436 38,000  Level Kansas City Center
03:29PM 37.8042 -100.6106 243° Southwest 374 430 38,000  Level Kansas City Center
03:30PM 37.7586 -100.7236 243° Southwest 373 429 38,000  Level Kansas City Center
03:31PM 37.7108 -100.8403 243° Southwest 373 429 38,000  Level Kansas City Center
03:32PM 37.6644 -100.9558 243° Southwest 372 428 38,000  Level Kansas City Center
03:33PM 37.6064 -101.1003 243° Southwest 383 441 38,000  Level Kansas City Center
03:34PM 37.5578 -101.2186 243° Southwest 375 432 38,000  Level Kansas City Center
03:35PM 37.5125 -101.3297 243° Southwest 373 429 38,000  Level Kansas City Center
03:36PM 37.4594 -101.4608 243° Southwest 375 432 38,000  Level Kansas City Center
03:37PM 37.4128 -101.5717 242° Southwest 375 432 38,000  Level Kansas City Center
03:38PM 37.3592 -101.7033 243° Southwest 378 435 38,000  Level Kansas City Center
03:39PM 37.3125 -101.8156 242° Southwest 379 436 38,000  Level Kansas City Center
03:40PM 37.2733 -101.9103 243° Southwest 380 437 38,000  Level Albuquerque Center
03:41PM 37.2256 -102.0250 242° Southwest 385 443 38,000  Level Albuquerque Center
03:42PM 37.1692 -102.1592 242° Southwest 388 447 38,000  Level Albuquerque Center
03:43PM 37.1242 -102.2753 244° Southwest 388 447 38,000  Level Albuquerque Center
03:44PM 37.0728 -102.3872 240° Southwest 386 444 38,000  Level Albuquerque Center
03:45PM 37.0158 -102.5197 242° Southwest 387 445 38,000  Level Albuquerque Center
03:46PM 36.9708 -102.6372 244° Southwest 388 447 38,000  Level Albuquerque Center
03:47PM 36.9142 -102.7714 242° Southwest 389 448 38,000  Level Albuquerque Center
03:48PM 36.8639 -102.8875 242° Southwest 394 453 38,000  Level Albuquerque Center
03:49PM 36.8061 -103.0214 242° Southwest 392 451 38,000  Level Albuquerque Center
03:50PM 36.7569 -103.1372 242° Southwest 392 451 38,000  Level Albuquerque Center
03:51PM 36.6994 -103.2697 242° Southwest 389 448 38,000  Level Albuquerque Center
03:52PM 36.6494 -103.3844 242° Southwest 390 449 38,000  Level Albuquerque Center
03:53PM 36.6008 -103.4989 242° Southwest 391 450 38,000  Level Albuquerque Center
03:54PM 36.5397 -103.6369 241° Southwest 388 447 38,000  Level Albuquerque Center
03:55PM 36.4878 -103.7544 241° Southwest 386 444 38,000  Level Albuquerque Center
03:56PM 36.4367 -103.8742 242° Southwest 388 447 38,000  Level Albuquerque Center
03:58PM 36.3839 -103.9883 240° Southwest 382 440 38,000  Level Albuquerque Center
03:59PM 36.3319 -104.1069 241° Southwest 387 445 38,000  Level Albuquerque Center
04:00PM 36.2786 -104.2236 240° Southwest 388 447 38,000  Level Albuquerque Center
04:01PM 36.2153 -104.3639 241° Southwest 395 455 38,000  Level Albuquerque Center
04:02PM 36.1628 -104.4817 241° Southwest 392 451 38,000  Level Albuquerque Center
04:03PM 36.1114 -104.5958 241° Southwest 383 441 38,000  Level Albuquerque Center
04:04PM 36.0592 -104.7100 241° Southwest 380 437 38,000  Level Albuquerque Center
04:05PM 36.0078 -104.8253 241° Southwest 382 440 38,000  Level Albuquerque Center
04:06PM 35.9533 -104.9431 240° Southwest 390 449 38,000  Level Albuquerque Center
04:07PM 35.9006 -105.0583 241° Southwest 387 445 38,000 -720 Level Albuquerque Center
04:08PM 35.8403 -105.1889 240° Southwest 378 435 36,500 -1,560 Descending Albuquerque Center
04:09PM 35.7908 -105.2986 241° Southwest 368 423 34,800 -1,740 Descending Albuquerque Center
04:10PM 35.7414 -105.4039 240° Southwest 358 412 33,000 -1,440 Descending Albuquerque Center
04:11PM 35.6967 -105.5117 243° Southwest 353 406 31,900 -780 Descending Albuquerque Center
04:12PM 35.6897 -105.6281 266° West 365 420 31,500 -1,140 Descending Albuquerque Center
04:13PM 35.6611 -105.7375 252° West 356 410 29,600 -1,740 Descending Albuquerque Center
04:14PM 35.5697 -105.8278 219° Southwest 334 384 28,000 -1,380 Descending Albuquerque Center
04:15PM 35.5203 -105.9131 235° Southwest 325 374 26,800 -1,020 Descending Albuquerque Center
04:16PM 35.4725 -106.0086 238° Southwest 327 376 25,900 -1,740 Descending Albuquerque Center
04:17PM 35.4308 -106.0900 238° Southwest 335 386 23,800 -2,520 Descending Albuquerque Center
04:17PM 35.4211 -106.1047 231° Southwest 334 384 23,300 -2,760 Descending Albuquerque Center
04:18PM 35.3911 -106.1658 239° Southwest 340 391 21,600 -2,520 Descending Albuquerque Center
04:18PM 35.3706 -106.2044 237° Southwest 341 392 20,700 -2,100 Descending Albuquerque Center
04:19PM 35.3403 -106.2653 239° Southwest 343 395 19,500 -2,040 Descending Albuquerque Center
04:19PM 35.3275 -106.3039 248° West 336 387 18,600 -2,340 Descending Albuquerque Center
04:20PM 35.3064 -106.3756 250° West 325 374 17,200 -2,460 Descending Albuquerque Center
04:20PM 35.2906 -106.4294 250° West 328 377 16,100 -1,980 Descending Albuquerque Center
04:21PM 35.2733 -106.4781 247° West 323 372 15,200 -1,980 Descending Albuquerque Center
04:21PM 35.2606 -106.5303 253° West 321 369 14,100 -1,200 Descending Albuquerque Center
04:22PM 35.2456 -106.5761 248° West 299 344 14,000 -120 Descending Albuquerque Center
04:22PM 35.2331 -106.6200 251° West 292 336 14,000  Level Albuquerque Center
04:23PM 35.2192 -106.6558 245° Southwest 244 281 14,000  Level Albuquerque Center
04:23PM 35.2081 -106.6958 251° West 251 289 14,000 -540 Level Albuquerque Center
04:24PM 35.1836 -106.7222 221° Southwest 242 278 13,500 -1,500 Descending Albuquerque Center
04:24PM 35.1478 -106.7353 197° South 254 292 12,500 -1,800 Descending Albuquerque Center
04:25PM 35.1231 -106.7533 211° Southwest 230 265 11,700 -1,860 Descending Albuquerque Center
04:25PM 35.1022 -106.7825 229° Southwest 230 265 10,600 -1,500 Descending Albuquerque Center
04:26PM 35.0769 -106.7964 204° Southwest 190 219 10,200 -1,440 Descending Albuquerque Center
04:27PM 35.0475 -106.7494 127° Southeast 181 208 8,700 -1,680 Descending Albuquerque Center
04:27PM 35.0394 -106.7094 104° East 186 214 7,300 -2,040 Descending Albuquerque Center
04:28PM 35.0422 -106.6939 78° East 163 188 6,700 -1,260 Descending Albuquerque Center
04:29PM 35.0433 -106.6389 89° East 165 190 5,700 -780 Descending Albuquerque Center
04:30PM 35.0433 -106.5942 90° East 167 192 5,300 -540 Descending Albuquerque Center